Time;durP1;ratioP1;P1;durP2;ratioP2;P2;SDS_P1;SDS_P2;PMS_P1;PMS_P2;Temp;Humidity;BMP_temperature;BMP_pressure;BME280_temperature;BME280_humidity;BME280_pressure;Samples;Min_cycle;Max_cycle;Signal;HPM_P1;HPM_P2
2022/07/03 00:01:35;;;;;;;4.40;3.13;;;;;;;14.53;100.00;96725.75;5033500;28;20437;-71
2022/07/03 00:04:02;;;;;;;3.00;2.70;;;;;;;14.29;100.00;96705.34;5033563;28;20447;-71
2022/07/03 00:06:31;;;;;;;3.23;2.93;;;;;;;14.16;100.00;96718.72;5033672;28;20603;-71
2022/07/03 00:08:59;;;;;;;3.50;3.00;;;;;;;13.85;100.00;96716.72;5033926;28;20810;-71
2022/07/03 00:11:26;;;;;;;3.13;2.93;;;;;;;13.98;100.00;96714.03;5050031;28;20465;-71
2022/07/03 00:13:53;;;;;;;3.17;2.93;;;;;;;13.84;100.00;96706.44;5033260;28;20506;-71
2022/07/03 00:16:20;;;;;;;4.27;3.63;;;;;;;14.08;100.00;96730.28;5033614;28;20550;-71
2022/07/03 00:18:47;;;;;;;3.23;2.67;;;;;;;14.18;100.00;96726.38;5033409;28;20448;-71
2022/07/03 00:21:53;;;;;;;4.53;3.73;;;;;;;14.00;100.00;96720.53;5033564;28;20421;-71
2022/07/03 00:24:25;;;;;;;4.03;3.30;;;;;;;13.82;100.00;96706.75;4989255;28;20440;-71
2022/07/03 00:26:53;;;;;;;6.10;3.47;;;;;;;13.77;100.00;96715.00;5023365;28;20980;-71
2022/07/03 00:29:22;;;;;;;3.20;3.00;;;;;;;13.72;100.00;96707.22;5033321;28;20499;-71
2022/07/03 00:31:49;;;;;;;3.60;3.30;;;;;;;13.59;100.00;96703.06;5066353;28;20498;-71
2022/07/03 00:34:17;;;;;;;4.40;4.10;;;;;;;13.53;100.00;96699.88;5033376;28;20460;-71
2022/07/03 00:36:46;;;;;;;3.20;2.83;;;;;;;13.68;100.00;96697.63;5033130;28;20564;-71
2022/07/03 00:39:14;;;;;;;3.30;3.10;;;;;;;13.69;100.00;96697.28;5050791;28;20434;-71
2022/07/03 00:41:44;;;;;;;4.23;3.83;;;;;;;13.58;100.00;96696.97;5030011;28;20851;-71
2022/07/03 00:44:10;;;;;;;3.77;3.53;;;;;;;13.41;100.00;96704.44;5026589;28;20509;-71
2022/07/03 00:46:39;;;;;;;3.23;3.07;;;;;;;13.34;100.00;96702.31;5032021;28;20992;-71
2022/07/03 00:49:09;;;;;;;4.20;3.90;;;;;;;13.31;100.00;96669.25;5032567;28;20457;-71
2022/07/03 00:51:40;;;;;;;3.70;3.50;;;;;;;13.67;100.00;96698.72;5066124;28;20482;-71
2022/07/03 00:54:09;;;;;;;4.80;4.07;;;;;;;13.10;100.00;96622.69;5050631;28;20514;-71
2022/07/03 00:56:39;;;;;;;4.10;3.80;;;;;;;13.49;100.00;96667.13;5017441;28;20516;-71
2022/07/03 00:59:06;;;;;;;3.80;3.50;;;;;;;13.08;100.00;96641.59;5020271;28;20473;-71
2022/07/03 01:01:35;;;;;;;3.40;3.10;;;;;;;13.19;100.00;96693.16;5036735;28;20480;-71
2022/07/03 01:04:11;;;;;;;3.60;3.30;;;;;;;13.30;100.00;96702.22;5036236;28;20484;-72
2022/07/03 01:07:05;;;;;;;3.40;2.87;;;;;;;13.16;100.00;96695.69;5069345;28;20461;-70
2022/07/03 01:09:45;;;;;;;3.20;3.00;;;;;;;13.15;100.00;96705.53;5036377;28;20453;-71
2022/07/03 01:12:23;;;;;;;3.50;3.30;;;;;;;12.88;100.00;96669.03;5053896;28;20421;-71
2022/07/03 01:15:05;;;;;;;3.30;3.10;;;;;;;13.17;100.00;96699.88;5057122;28;20468;-71
2022/07/03 01:17:37;;;;;;;3.30;3.00;;;;;;;13.15;100.00;96694.16;5041453;28;20511;-71
2022/07/03 01:20:25;;;;;;;3.90;3.60;;;;;;;12.88;100.00;96669.81;5040728;28;20555;-71
2022/07/03 01:22:58;;;;;;;4.03;3.73;;;;;;;13.08;100.00;96688.59;4981375;28;20434;-71
2022/07/03 01:25:37;;;;;;;3.90;3.60;;;;;;;12.72;100.00;96700.78;4980582;28;20436;-71
2022/07/03 01:28:15;;;;;;;4.37;4.00;;;;;;;12.72;100.00;96688.28;4979796;28;20836;-71
2022/07/03 01:30:54;;;;;;;4.77;3.60;;;;;;;12.72;100.00;96684.84;4980421;28;20594;-71
2022/07/03 01:33:25;;;;;;;3.80;3.50;;;;;;;12.78;100.00;96675.56;4996209;28;20571;-71
2022/07/03 01:36:00;;;;;;;4.20;3.77;;;;;;;12.70;100.00;96681.75;4996611;28;20439;-71
2022/07/03 01:38:29;;;;;;;3.17;2.97;;;;;;;12.70;100.00;96660.53;4978001;28;20827;-71
2022/07/03 01:40:57;;;;;;;3.97;3.67;;;;;;;12.80;100.00;96661.97;4992009;28;20528;-71
2022/07/03 01:43:34;;;;;;;4.30;4.00;;;;;;;12.65;100.00;96671.34;4975648;28;20495;-71
2022/07/03 01:46:03;;;;;;;3.70;3.40;;;;;;;12.50;100.00;96672.00;4975271;28;20490;-71
2022/07/03 01:48:32;;;;;;;4.10;3.80;;;;;;;12.10;100.00;96630.16;4975202;28;20482;-71
2022/07/03 01:51:00;;;;;;;4.00;3.60;;;;;;;12.43;100.00;96661.94;4959382;28;20531;-71
2022/07/03 01:53:30;;;;;;;3.70;3.50;;;;;;;12.39;100.00;96627.34;4975338;28;20455;-71
2022/07/03 01:55:59;;;;;;;3.30;3.00;;;;;;;12.44;100.00;96647.59;4990785;28;20535;-71
2022/07/03 01:58:27;;;;;;;3.50;3.30;;;;;;;12.70;100.00;96650.69;4975108;28;20527;-71
2022/07/03 02:00:59;;;;;;;3.83;3.53;;;;;;;12.83;100.00;96658.66;5028104;28;20433;-71
2022/07/03 02:03:29;;;;;;;3.20;3.00;;;;;;;12.61;100.00;96662.50;5068547;28;20445;-71
2022/07/03 02:06:33;;;;;;;3.33;3.13;;;;;;;12.55;100.00;96651.31;5034965;28;21898;-71
2022/07/03 02:09:03;;;;;;;4.10;3.80;;;;;;;12.24;100.00;96651.06;5034207;28;20503;-71
2022/07/03 02:11:50;;;;;;;3.87;3.67;;;;;;;12.06;100.00;96650.50;5037709;28;20439;-70
2022/07/03 02:14:25;;;;;;;3.40;3.10;;;;;;;12.43;100.00;96651.34;5035032;28;20459;-71
2022/07/03 02:17:04;;;;;;;3.80;3.53;;;;;;;12.43;100.00;96657.41;5067941;28;20452;-71
2022/07/03 02:19:41;;;;;;;4.27;3.87;;;;;;;12.28;100.00;96620.13;5035365;28;20471;-71
2022/07/03 02:22:11;;;;;;;4.30;3.90;;;;;;;12.32;100.00;96626.34;5051291;28;20512;-71
2022/07/03 02:24:47;;;;;;;3.97;3.67;;;;;;;12.40;100.00;96655.41;5051106;28;20445;-70
2022/07/03 02:27:21;;;;;;;3.97;3.67;;;;;;;12.15;100.00;96616.69;5050925;28;20457;-71
2022/07/03 02:30:01;;;;;;;5.30;3.90;;;;;;;12.01;100.00;96624.16;5050928;28;20460;-71
2022/07/03 02:32:30;;;;;;;4.10;3.80;;;;;;;11.99;100.00;96621.84;5034491;28;20491;-70
2022/07/03 02:35:05;;;;;;;3.30;3.00;;;;;;;12.05;100.00;96647.06;5034196;28;20446;-70
2022/07/03 02:37:38;;;;;;;3.30;3.00;;;;;;;12.36;100.00;96659.81;5050891;28;20453;-71
2022/07/03 02:40:16;;;;;;;4.27;3.50;;;;;;;12.38;100.00;96659.50;5034205;28;20460;-71
2022/07/03 02:42:55;;;;;;;3.97;3.67;;;;;;;12.21;100.00;96654.38;5034209;28;20433;-71
2022/07/03 02:45:29;;;;;;;3.73;3.53;;;;;;;12.26;100.00;96660.25;5050735;28;20445;-71
2022/07/03 02:48:24;;;;;;;3.43;3.17;;;;;;;12.03;100.00;96646.63;5050700;28;20498;-70
2022/07/03 02:50:58;;;;;;;3.03;2.83;;;;;;;12.02;100.00;96652.22;5033814;28;20474;-71
2022/07/03 02:53:35;;;;;;;4.07;3.77;;;;;;;11.92;100.00;96644.69;5050467;28;20433;-71
2022/07/03 02:56:14;;;;;;;5.90;3.63;;;;;;;11.95;100.00;96657.28;5033833;28;20487;-71
2022/07/03 02:58:59;;;;;;;4.53;3.53;;;;;;;11.75;100.00;96646.38;5033855;28;20525;-71
2022/07/03 03:02:01;;;;;;;3.50;3.20;;;;;;;12.05;100.00;96654.25;5033947;28;20436;-71
2022/07/03 03:04:32;;;;;;;4.10;3.80;;;;;;;11.75;100.00;96608.50;5033695;28;20487;-71
2022/07/03 03:07:14;;;;;;;4.20;3.80;;;;;;;12.01;100.00;96655.97;5051524;28;20916;-71
2022/07/03 03:09:43;;;;;;;3.47;3.27;;;;;;;11.66;100.00;96647.56;5051469;28;20461;-71
2022/07/03 03:12:12;;;;;;;3.83;3.63;;;;;;;11.18;100.00;96654.91;5051406;28;20437;-71
2022/07/03 03:14:43;;;;;;;3.90;3.47;;;;;;;11.61;100.00;96645.09;5050110;28;20502;-71
2022/07/03 03:17:18;;;;;;;3.73;3.50;;;;;;;11.76;100.00;96655.09;5050057;28;20578;-71
2022/07/03 03:19:54;;;;;;;3.63;2.73;;;;;;;11.71;100.00;96655.28;5051464;28;20841;-71
2022/07/03 03:22:55;;;;;;;4.33;4.00;;;;;;;11.94;100.00;96661.81;5033570;28;20532;-71
2022/07/03 03:25:22;;;;;;;4.60;4.20;;;;;;;11.58;100.00;96662.41;5033635;28;20449;-71
2022/07/03 03:27:48;;;;;;;3.87;3.60;;;;;;;11.75;100.00;96653.53;5033237;28;20497;-70
2022/07/03 03:30:15;;;;;;;4.27;3.87;;;;;;;11.44;100.00;96667.97;5033104;28;20461;-71
2022/07/03 03:32:42;;;;;;;4.63;4.30;;;;;;;11.58;100.00;96661.63;5033207;28;20469;-71
2022/07/03 03:35:10;;;;;;;3.70;3.50;;;;;;;11.53;100.00;96630.84;5033182;28;20473;-71
2022/07/03 03:37:37;;;;;;;4.50;4.00;;;;;;;11.48;100.00;96655.63;5033050;28;20500;-71
2022/07/03 03:40:05;;;;;;;4.60;3.23;;;;;;;11.11;100.00;96644.06;5016703;28;20454;-71
2022/07/03 03:42:32;;;;;;;4.67;3.67;;;;;;;11.11;100.00;96638.00;5026855;28;21010;-71
2022/07/03 03:44:58;;;;;;;3.40;3.17;;;;;;;11.00;100.00;96655.34;5032818;28;20434;-71
2022/07/03 03:47:25;;;;;;;3.63;3.33;;;;;;;10.86;100.00;96653.69;5029772;28;20454;-71
2022/07/03 03:49:52;;;;;;;4.53;4.17;;;;;;;11.10;100.00;96661.03;5032918;28;21054;-71
2022/07/03 03:52:19;;;;;;;3.93;3.53;;;;;;;11.35;100.00;96666.47;5016536;28;20429;-71
2022/07/03 03:54:46;;;;;;;9.30;3.43;;;;;;;11.50;100.00;96666.69;5032922;28;20520;-71
2022/07/03 03:57:21;;;;;;;3.70;3.40;;;;;;;11.53;100.00;96668.69;5016393;28;20462;-71
2022/07/03 03:59:48;;;;;;;3.07;2.87;;;;;;;11.62;100.00;96650.09;5049686;28;20433;-71
2022/07/03 04:02:15;;;;;;;3.90;3.60;;;;;;;11.77;100.00;96673.31;5032807;28;20495;-71
2022/07/03 04:04:42;;;;;;;3.77;3.47;;;;;;;11.67;100.00;96641.16;5050774;28;20429;-71
2022/07/03 04:07:09;;;;;;;3.93;3.63;;;;;;;11.89;100.00;96640.06;5032681;28;20468;-71
2022/07/03 04:09:37;;;;;;;3.97;3.60;;;;;;;12.13;100.00;96677.22;5032932;28;20437;-71
2022/07/03 04:12:04;;;;;;;4.50;4.20;;;;;;;12.28;100.00;96681.13;5050611;28;20417;-71
2022/07/03 04:14:31;;;;;;;4.43;4.13;;;;;;;12.34;100.00;96670.00;5050667;28;20426;-71
2022/07/03 04:16:57;;;;;;;4.37;3.97;;;;;;;12.19;100.00;96649.41;5034065;28;20477;-71
2022/07/03 04:19:25;;;;;;;4.40;3.83;;;;;;;12.43;100.00;96673.34;5037767;28;20476;-71
2022/07/03 04:21:51;;;;;;;5.83;3.57;;;;;;;12.58;100.00;96671.91;5071270;28;20440;-71
2022/07/03 04:24:18;;;;;;;4.00;3.70;;;;;;;12.63;100.00;96668.25;5037928;28;20438;-71
2022/07/03 04:26:47;;;;;;;3.73;3.43;;;;;;;12.51;100.00;96668.25;5037998;28;20484;-71
2022/07/03 04:29:14;;;;;;;9.57;4.57;;;;;;;12.65;100.00;96650.91;5037264;28;20477;-72
2022/07/03 04:31:41;;;;;;;4.70;3.97;;;;;;;13.03;100.00;96663.06;5038669;28;20481;-71
2022/07/03 04:34:08;;;;;;;5.57;3.97;;;;;;;12.77;100.00;96670.59;5041590;28;20438;-71
2022/07/03 04:36:34;;;;;;;4.57;3.60;;;;;;;13.14;100.00;96658.09;5041001;28;21006;-71
2022/07/03 04:39:01;;;;;;;4.70;4.40;;;;;;;13.38;100.00;96670.59;5037630;28;20556;-71
2022/07/03 04:41:28;;;;;;;3.77;3.57;;;;;;;13.58;100.00;96657.13;5036272;28;20432;-71
2022/07/03 04:43:54;;;;;;;4.60;4.30;;;;;;;13.79;100.00;96674.78;5036491;28;20432;-71
2022/07/03 04:46:22;;;;;;;4.73;4.00;;;;;;;13.48;100.00;96662.91;5036098;28;20457;-71
2022/07/03 04:48:49;;;;;;;4.33;3.93;;;;;;;13.67;100.00;96667.63;5054148;28;20520;-71
2022/07/03 04:51:16;;;;;;;5.77;3.47;;;;;;;13.96;100.00;96657.75;5036222;28;20449;-71
2022/07/03 04:53:43;;;;;;;4.00;3.77;;;;;;;14.36;100.00;96682.38;5036101;28;20440;-71
2022/07/03 04:56:09;;;;;;;4.60;3.70;;;;;;;14.71;100.00;96687.06;5052480;28;20544;-71
2022/07/03 04:58:36;;;;;;;4.47;4.07;;;;;;;14.77;100.00;96683.78;5053968;28;20465;-71
2022/07/03 05:01:03;;;;;;;4.03;3.73;;;;;;;14.56;100.00;96674.53;5052494;28;21024;-71
2022/07/03 05:03:30;;;;;;;4.37;4.07;;;;;;;14.23;100.00;96656.19;5053789;28;20433;-71
2022/07/03 05:05:58;;;;;;;5.23;4.83;;;;;;;14.85;100.00;96687.41;5035996;28;20797;-71
2022/07/03 05:08:24;;;;;;;5.40;4.60;;;;;;;14.98;100.00;96666.78;5052293;28;20447;-71
2022/07/03 05:10:51;;;;;;;7.73;4.10;;;;;;;15.22;100.00;96687.84;5052257;28;20543;-71
2022/07/03 05:13:18;;;;;;;4.10;3.70;;;;;;;15.55;100.00;96703.44;5052351;28;20545;-71
2022/07/03 05:15:45;;;;;;;9.87;5.30;;;;;;;15.62;100.00;96700.16;5035766;28;20444;-71
2022/07/03 05:18:11;;;;;;;4.30;4.00;;;;;;;15.58;100.00;96675.31;5019334;28;20480;-71
2022/07/03 05:20:38;;;;;;;4.27;3.97;;;;;;;15.98;100.00;96706.22;5053593;28;20524;-71
2022/07/03 05:23:05;;;;;;;10.53;4.67;;;;;;;15.95;100.00;96675.69;5035388;28;20857;-71
2022/07/03 05:25:32;;;;;;;4.40;4.00;;;;;;;16.45;100.00;96705.97;5068775;28;20433;-71
2022/07/03 05:28:00;;;;;;;4.07;3.87;;;;;;;16.54;100.00;96680.56;5035287;28;20477;-71
2022/07/03 05:30:27;;;;;;;4.33;4.03;;;;;;;16.82;100.00;96687.53;5051973;28;20535;-71
2022/07/03 05:32:54;;;;;;;4.87;4.57;;;;;;;17.04;100.00;96683.31;5035558;28;20521;-72
2022/07/03 05:35:21;;;;;;;4.17;3.80;;;;;;;17.20;100.00;96701.84;5053373;28;20445;-71
2022/07/03 05:37:48;;;;;;;3.83;3.63;;;;;;;17.10;100.00;96709.38;5035467;28;20507;-71
2022/07/03 05:40:14;;;;;;;4.07;3.80;;;;;;;16.99;100.00;96675.59;5051852;28;20491;-71
2022/07/03 05:42:41;;;;;;;3.90;3.70;;;;;;;17.04;100.00;96708.13;5034266;28;20567;-72
2022/07/03 05:45:09;;;;;;;4.63;4.20;;;;;;;16.98;100.00;96706.13;5034676;28;20438;-71
2022/07/03 05:47:36;;;;;;;4.50;4.20;;;;;;;16.40;100.00;96672.31;5051402;28;21048;-71
2022/07/03 05:50:03;;;;;;;4.67;4.30;;;;;;;16.46;100.00;96676.25;5035210;28;20433;-71
2022/07/03 05:52:29;;;;;;;5.20;4.80;;;;;;;16.72;100.00;96667.56;5051522;28;20465;-71
2022/07/03 05:54:56;;;;;;;5.00;4.50;;;;;;;17.01;100.00;96703.50;5018587;28;21056;-71
2022/07/03 05:57:23;;;;;;;4.00;3.67;;;;;;;17.04;100.00;96678.72;5018405;28;20496;-71
2022/07/03 05:59:50;;;;;;;4.73;4.30;;;;;;;16.91;100.00;96681.97;5068147;28;20444;-71
2022/07/03 06:02:17;;;;;;;4.10;3.80;;;;;;;17.19;100.00;96703.75;5051315;28;20488;-71
2022/07/03 06:04:44;;;;;;;4.27;3.97;;;;;;;17.48;100.00;96709.50;5052947;28;20418;-71
2022/07/03 06:07:10;;;;;;;5.17;4.07;;;;;;;17.96;100.00;96708.63;5052573;28;20456;-71
2022/07/03 06:09:37;;;;;;;5.10;4.50;;;;;;;18.12;100.00;96696.97;5035006;28;20430;-71
2022/07/03 06:12:04;;;;;;;4.30;4.00;;;;;;;18.67;100.00;96716.66;5037130;28;21086;-71
2022/07/03 06:14:31;;;;;;;4.27;3.87;;;;;;;18.69;100.00;96702.91;5062889;28;20633;-70
2022/07/03 06:16:58;;;;;;;4.00;3.70;;;;;;;18.49;100.00;96697.72;5018596;28;21003;-70
2022/07/03 06:19:24;;;;;;;4.30;4.00;;;;;;;18.92;100.00;96700.81;5052643;28;20794;-70
2022/07/03 06:21:51;;;;;;;4.27;3.87;;;;;;;18.93;100.00;96723.03;5052492;28;20799;-70
2022/07/03 06:24:18;;;;;;;4.17;3.87;;;;;;;18.65;100.00;96694.06;5034826;28;20513;-70
2022/07/03 06:26:44;;;;;;;6.13;4.33;;;;;;;19.13;100.00;96713.63;5031019;28;20461;-70
2022/07/03 06:29:11;;;;;;;4.10;3.80;;;;;;;19.00;100.00;96691.69;5042823;28;20442;-70
2022/07/03 06:31:38;;;;;;;4.10;3.70;;;;;;;19.60;100.00;96728.88;5052273;28;20586;-70
2022/07/03 06:34:05;;;;;;;5.03;4.53;;;;;;;19.66;100.00;96678.34;5034376;28;20430;-70
2022/07/03 06:36:31;;;;;;;4.80;3.80;;;;;;;20.15;96.70;96709.19;5034405;28;20523;-70
2022/07/03 06:38:58;;;;;;;5.70;3.90;;;;;;;20.53;96.87;96705.09;5067743;28;20465;-71
2022/07/03 06:41:25;;;;;;;3.90;3.50;;;;;;;20.60;93.49;96724.69;5050768;28;20438;-71
2022/07/03 06:43:51;;;;;;;4.37;3.23;;;;;;;21.04;93.19;96715.50;5034192;28;20851;-70
2022/07/03 06:46:18;;;;;;;3.90;3.60;;;;;;;21.15;91.41;96718.94;5033902;28;20469;-71
2022/07/03 06:48:45;;;;;;;3.50;3.30;;;;;;;21.30;91.25;96721.66;5050596;28;20441;-71
2022/07/03 06:51:11;;;;;;;3.40;3.10;;;;;;;21.22;89.07;96692.03;5033815;28;20469;-70
2022/07/03 06:53:43;;;;;;;4.63;3.50;;;;;;;21.60;87.92;96705.81;5051935;28;20517;-71
2022/07/03 06:56:10;;;;;;;3.67;3.40;;;;;;;21.50;86.74;96701.22;5033394;28;20466;-70
2022/07/03 06:58:36;;;;;;;3.80;3.50;;;;;;;21.46;86.45;96717.38;5051680;28;20429;-70
2022/07/03 07:01:03;;;;;;;4.00;3.50;;;;;;;21.66;86.42;96692.75;5033482;28;20464;-70
2022/07/03 07:03:30;;;;;;;3.67;3.33;;;;;;;22.11;84.73;96726.06;5051681;28;20475;-70
2022/07/03 07:05:57;;;;;;;3.83;3.63;;;;;;;22.13;84.01;96705.66;5033579;28;20455;-70
2022/07/03 07:08:24;;;;;;;3.43;3.03;;;;;;;22.07;82.23;96682.22;5033600;28;20440;-70
2022/07/03 07:10:51;;;;;;;3.00;2.80;;;;;;;22.26;82.61;96714.06;5033399;28;20458;-70
2022/07/03 07:13:17;;;;;;;4.30;4.00;;;;;;;22.31;82.39;96686.72;5033754;28;20434;-70
2022/07/03 07:15:44;;;;;;;3.40;3.20;;;;;;;22.35;79.93;96681.31;5012333;28;20433;-70
2022/07/03 07:18:11;;;;;;;4.00;3.47;;;;;;;22.36;81.03;96683.59;5033315;28;20524;-70
2022/07/03 07:20:38;;;;;;;3.13;2.93;;;;;;;22.78;79.31;96711.44;5027314;28;20425;-71
2022/07/03 07:23:04;;;;;;;3.20;3.00;;;;;;;22.95;79.06;96707.84;5033661;28;20948;-70
2022/07/03 07:25:31;;;;;;;5.20;3.00;;;;;;;23.23;78.28;96708.78;5033839;28;20881;-70
2022/07/03 07:27:58;;;;;;;3.00;2.80;;;;;;;22.99;76.32;96708.63;5051170;28;20512;-70
2022/07/03 07:30:25;;;;;;;3.70;3.47;;;;;;;23.15;77.73;96694.59;5030225;28;20491;-70
2022/07/03 07:32:51;;;;;;;3.43;3.23;;;;;;;23.45;76.65;96706.66;5051084;28;20422;-70
2022/07/03 07:35:20;;;;;;;3.17;2.93;;;;;;;23.54;74.97;96693.47;5033396;28;20429;-72
2022/07/03 07:37:48;;;;;;;3.20;3.00;;;;;;;23.95;73.89;96701.50;5033323;28;21133;-72
2022/07/03 07:40:15;;;;;;;2.60;2.50;;;;;;;23.72;72.83;96680.53;5033479;28;20445;-70
2022/07/03 07:42:42;;;;;;;3.40;3.10;;;;;;;23.43;72.90;96687.41;5031867;28;20441;-72
2022/07/03 07:45:10;;;;;;;3.20;2.87;;;;;;;24.05;71.87;96703.31;5013258;28;20457;-72
2022/07/03 07:47:37;;;;;;;2.70;2.50;;;;;;;23.93;72.46;96703.09;5033267;28;20465;-72
2022/07/03 07:50:07;;;;;;;3.10;2.90;;;;;;;23.99;72.60;96694.13;5033313;28;20437;-71
2022/07/03 07:52:34;;;;;;;2.97;2.80;;;;;;;24.32;70.88;96691.81;5048170;28;20864;-71
2022/07/03 07:55:01;;;;;;;3.10;2.87;;;;;;;24.24;70.84;96704.59;5016489;28;20441;-71
2022/07/03 07:57:35;;;;;;;4.00;2.93;;;;;;;24.89;69.42;96702.53;5028270;28;20474;-72
2022/07/03 08:00:09;;;;;;;3.47;3.17;;;;;;;24.67;69.88;96691.28;5030246;28;20445;-72
2022/07/03 08:05:36;;;;;;;3.03;2.83;;;;;;;24.96;68.16;96710.53;5031364;28;20461;-70
2022/07/03 08:08:11;;;;;;;2.90;2.70;;;;;;;25.37;67.37;96706.00;5033928;28;20462;-72
2022/07/03 08:10:40;;;;;;;3.20;3.00;;;;;;;25.60;65.91;96705.97;5036760;28;20421;-69
2022/07/03 08:13:08;;;;;;;3.03;2.33;;;;;;;26.06;65.78;96702.41;5037537;28;20433;-73
2022/07/03 08:15:35;;;;;;;2.77;2.57;;;;;;;26.32;64.51;96699.94;5034853;28;20438;-69
2022/07/03 08:18:02;;;;;;;2.77;2.60;;;;;;;25.32;65.13;96682.91;5031030;28;20462;-72
2022/07/03 08:20:29;;;;;;;4.47;2.90;;;;;;;25.71;65.43;96679.50;5040632;28;21067;-71
2022/07/03 08:22:56;;;;;;;3.10;2.50;;;;;;;25.42;64.73;96686.59;5070646;28;20430;-71
2022/07/03 08:25:22;;;;;;;2.97;2.77;;;;;;;24.90;64.65;96660.00;5037663;28;20441;-71
2022/07/03 08:27:49;;;;;;;2.67;2.47;;;;;;;24.68;65.93;96695.50;5037785;28;20515;-71
2022/07/03 08:30:17;;;;;;;2.97;2.77;;;;;;;25.05;65.02;96680.28;5038642;28;20788;-71
2022/07/03 08:32:45;;;;;;;3.00;2.80;;;;;;;25.48;64.78;96671.38;5072405;28;20470;-71
2022/07/03 08:35:12;;;;;;;2.83;2.63;;;;;;;25.54;65.76;96692.16;5039470;28;20433;-72
2022/07/03 08:37:43;;;;;;;2.73;2.20;;;;;;;25.71;64.07;96687.63;5039545;28;20984;-71
2022/07/03 08:40:11;;;;;;;3.27;3.07;;;;;;;25.18;64.07;96664.19;5059926;28;20434;-72
2022/07/03 08:42:40;;;;;;;5.17;2.77;;;;;;;25.57;64.47;96680.50;5021892;28;20429;-71
2022/07/03 08:45:12;;;;;;;2.67;2.47;;;;;;;25.34;63.59;96684.00;5038481;28;20528;-71
2022/07/03 08:47:41;;;;;;;3.93;2.97;;;;;;;25.43;64.82;96677.28;5038377;28;20461;-72
2022/07/03 08:50:09;;;;;;;3.33;3.03;;;;;;;26.10;63.62;96657.00;5038526;28;20425;-69
2022/07/03 08:52:36;;;;;;;3.10;2.90;;;;;;;26.33;62.44;96685.97;5056820;28;20469;-70
2022/07/03 08:55:04;;;;;;;3.20;3.00;;;;;;;26.35;61.56;96680.88;5057421;28;20421;-72
2022/07/03 08:57:35;;;;;;;2.40;2.30;;;;;;;26.80;61.28;96686.44;5059870;28;20440;-70
2022/07/03 09:00:05;;;;;;;3.53;2.30;;;;;;;26.43;60.41;96662.50;5066415;28;20484;-71
2022/07/03 09:02:33;;;;;;;15.63;3.73;;;;;;;26.22;60.08;96680.00;5039876;28;20441;-71
2022/07/03 09:05:04;;;;;;;3.40;2.80;;;;;;;26.11;61.38;96663.97;5037066;28;20442;-71
2022/07/03 09:07:35;;;;;;;2.93;2.73;;;;;;;25.66;61.33;96685.38;5036286;28;20510;-71
2022/07/03 09:10:04;;;;;;;3.10;2.80;;;;;;;25.77;60.66;96677.81;5037671;28;20437;-71
2022/07/03 09:12:31;;;;;;;2.50;2.40;;;;;;;25.36;61.93;96678.19;5039287;28;20483;-71
2022/07/03 09:14:59;;;;;;;2.10;2.00;;;;;;;25.49;60.68;96670.19;5039204;28;20422;-70
2022/07/03 09:17:27;;;;;;;3.07;2.87;;;;;;;26.35;60.51;96680.09;5052339;28;20449;-71
2022/07/03 09:19:57;;;;;;;2.30;2.20;;;;;;;26.47;58.90;96688.38;5022279;28;20865;-71
2022/07/03 09:22:28;;;;;;;2.37;2.27;;;;;;;26.71;57.77;96677.34;5056737;28;20413;-71
2022/07/03 09:25:03;;;;;;;3.03;2.83;;;;;;;26.28;58.38;96680.25;5037440;28;20429;-71
2022/07/03 09:27:30;;;;;;;3.17;2.97;;;;;;;26.36;58.82;96674.28;5037060;28;20468;-71
2022/07/03 09:29:58;;;;;;;2.97;2.77;;;;;;;26.83;58.53;96675.91;5036270;28;20422;-71
2022/07/03 09:32:25;;;;;;;3.70;2.80;;;;;;;27.33;57.39;96672.75;5045862;28;20448;-70
2022/07/03 09:35:14;;;;;;;2.90;2.70;;;;;;;26.94;56.37;96674.47;5038082;28;20488;-71
2022/07/03 09:37:47;;;;;;;2.70;2.50;;;;;;;27.17;57.00;96676.28;5035150;28;20465;-71
2022/07/03 09:40:14;;;;;;;2.20;2.10;;;;;;;27.16;57.21;96663.88;5053187;28;20422;-71
2022/07/03 09:42:56;;;;;;;2.90;2.70;;;;;;;27.09;57.59;96642.34;5035183;28;20903;-71
2022/07/03 09:45:22;;;;;;;3.00;2.80;;;;;;;27.78;57.26;96639.34;5053214;28;20467;-72
2022/07/03 09:47:49;;;;;;;2.47;2.37;;;;;;;27.80;55.97;96650.56;5053038;28;20437;-71
2022/07/03 09:50:31;;;;;;;2.63;2.53;;;;;;;27.23;56.72;96663.69;5035197;28;20468;-71
2022/07/03 09:53:00;;;;;;;2.67;2.47;;;;;;;26.27;58.33;96657.03;5053329;28;20468;-71
2022/07/03 09:55:27;;;;;;;2.67;2.47;;;;;;;26.24;59.20;96634.25;5053164;28;20829;-72
2022/07/03 09:57:53;;;;;;;3.00;2.60;;;;;;;25.96;59.52;96651.91;5052615;28;20457;-71
2022/07/03 10:00:21;;;;;;;3.10;2.90;;;;;;;26.68;58.58;96659.97;5035055;28;20475;-71
2022/07/03 10:03:01;;;;;;;2.90;2.70;;;;;;;26.66;58.03;96650.75;5034877;28;20433;-71
2022/07/03 10:05:30;;;;;;;2.30;2.10;;;;;;;26.17;59.02;96645.22;5033737;28;20955;-71
2022/07/03 10:08:00;;;;;;;2.60;2.40;;;;;;;26.26;56.78;96653.56;5034839;28;20456;-71
2022/07/03 10:10:30;;;;;;;1.90;1.80;;;;;;;25.94;55.11;96635.28;5034093;28;20446;-71
2022/07/03 10:12:58;;;;;;;4.13;1.60;;;;;;;25.93;54.63;96609.38;5052546;28;20457;-71
2022/07/03 10:15:26;;;;;;;1.87;1.47;;;;;;;26.41;53.48;96637.75;5034864;28;20461;-71
2022/07/03 10:17:56;;;;;;;1.90;1.80;;;;;;;26.51;53.41;96636.75;5067768;28;20462;-71
2022/07/03 10:20:33;;;;;;;2.33;1.50;;;;;;;26.17;54.58;96650.66;5064389;28;20453;-71
2022/07/03 10:23:01;;;;;;;1.93;1.83;;;;;;;25.77;54.23;96544.28;5034760;28;20417;-71
2022/07/03 10:25:30;;;;;;;2.00;1.60;;;;;;;27.05;53.57;96642.44;5052737;28;20425;-71
2022/07/03 10:27:58;;;;;;;1.90;1.80;;;;;;;26.77;53.03;96635.75;5052271;28;20511;-71
2022/07/03 10:30:25;;;;;;;2.00;1.90;;;;;;;27.01;51.18;96643.72;5033948;28;20437;-71
2022/07/03 10:32:54;;;;;;;1.40;1.30;;;;;;;26.84;50.86;96623.16;5052210;28;20989;-71
2022/07/03 10:35:26;;;;;;;2.30;1.50;;;;;;;26.98;51.26;96649.97;5034133;28;20436;-71
2022/07/03 10:38:02;;;;;;;2.17;1.67;;;;;;;26.71;52.94;96640.16;5051925;28;20808;-71
2022/07/03 10:46:24;;;;;;;2.00;1.43;;;;;;;26.96;48.67;96617.03;5053262;28;20453;-71
2022/07/03 10:48:59;;;;;;;1.53;1.37;;;;;;;27.29;48.44;96640.25;5035754;28;20524;-71
2022/07/03 10:51:28;;;;;;;1.80;1.70;;;;;;;27.78;47.78;96639.34;5053737;28;20806;-71
2022/07/03 10:54:16;;;;;;;2.70;1.87;;;;;;;28.25;48.14;96648.44;5017660;28;20433;-71
2022/07/03 10:57:01;;;;;;;2.63;1.47;;;;;;;27.78;47.11;96636.63;5017501;28;20460;-72
2022/07/03 10:59:34;;;;;;;1.50;1.40;;;;;;;27.76;46.81;96641.72;5050600;28;20483;-71
2022/07/03 11:02:24;;;;;;;1.97;1.37;;;;;;;27.15;45.32;96634.44;5051946;28;20449;-71
2022/07/03 11:04:59;;;;;;;1.60;1.50;;;;;;;27.21;46.41;96628.06;5034030;28;20472;-71
2022/07/03 11:07:42;;;;;;;1.80;1.70;;;;;;;27.53;45.51;96648.19;5033692;28;20829;-72
2022/07/03 11:10:12;;;;;;;1.43;1.33;;;;;;;27.72;46.05;96630.19;5034280;28;20532;-72
2022/07/03 11:13:03;;;;;;;2.10;1.90;;;;;;;27.84;46.56;96635.66;5051516;28;20534;-71
2022/07/03 11:15:48;;;;;;;2.17;1.70;;;;;;;27.96;45.53;96628.72;5017347;28;20456;-71
2022/07/03 11:18:20;;;;;;;1.60;1.50;;;;;;;27.94;45.40;96636.56;5050080;28;20441;-71
2022/07/03 11:20:50;;;;;;;1.60;1.50;;;;;;;27.03;47.55;96620.38;5051577;28;20850;-71
2022/07/03 11:23:23;;;;;;;2.30;1.40;;;;;;;26.97;47.54;96615.84;5051504;28;20499;-71
2022/07/03 11:25:51;;;;;;;2.10;2.00;;;;;;;27.75;47.90;96610.31;5033273;28;20452;-71
2022/07/03 11:28:33;;;;;;;2.17;2.07;;;;;;;28.73;46.42;96619.38;5033265;28;20960;-71
2022/07/03 11:33:58;;;;;;;1.93;1.83;;;;;;;29.16;46.17;96614.47;5052240;28;20463;-71
2022/07/03 11:36:32;;;;;;;2.13;1.70;;;;;;;29.28;45.21;96613.66;5017484;28;20948;-71
2022/07/03 11:38:59;;;;;;;1.77;1.67;;;;;;;29.69;44.21;96615.34;5033578;28;20451;-71
2022/07/03 11:41:28;;;;;;;1.87;1.60;;;;;;;30.05;44.28;96606.63;5033542;28;20491;-71
2022/07/03 11:44:03;;;;;;;1.90;1.80;;;;;;;29.96;43.54;96612.75;5050586;28;20437;-71
2022/07/03 11:46:32;;;;;;;10.50;1.87;;;;;;;29.63;44.29;96593.31;5050995;28;20459;-71
2022/07/03 11:49:05;;;;;;;2.43;1.80;;;;;;;29.15;43.20;96608.28;5051671;28;20453;-71
2022/07/03 11:51:33;;;;;;;2.50;2.30;;;;;;;28.90;43.45;96603.66;5033326;28;20429;-71
2022/07/03 11:54:00;;;;;;;3.00;1.80;;;;;;;28.98;43.55;96596.00;5049940;28;20433;-71
2022/07/03 11:56:27;;;;;;;3.43;1.40;;;;;;;28.85;42.46;96601.50;5033033;28;20461;-71